Hauptseite
METAR-TAF:

METAR-TAF

Flughäfen :

Flughafen Braunschweig-Wolfsburg

Braunschweig, Deutschland

Breite: 52-18N, Länge: 010-27E, Höhe: 81 m

Beobachtung

Neuester Wetterbericht von vor 34 Minuten, um 11:20 UTC
Wind 8 kt aus West/Südwest
Temperatur 11°C
Luftfeuchtigkeit 76%
Luftdruck 1029 hPa
Sichtweite 10 km oder mehr
Leicht bewölkt in der Höhe von 2800 ft

METAR: EDVE 141120Z 24008KT 9999 FEW028 11/07 Q1029

Zeit: 12:54 (11:54 UTC)

Prognose

Neuester Wetterbericht von vor 54 Minuten, um 11:00 UTC
Gültige Prognose vom 14 um 12 UTC bis 14 um 21 UTC
Wind 8 kt aus Südwest
Sichtweite 10 km oder mehr
keine Wolken unter 1500 m und keine Kumulonimbus oder Gewitterwolken
Übergehend zu
vom 14 um 16 UTC bis 14 um 19 UTC
Wind 5 kt aus Süd/Südost

TAF: EDVE 141100Z 1412/1421 23008KT CAVOK BECMG 1416/1419 15005KT

Wetterbeobachtungen und Prognosen von mehr als 4000 Flughäfen (METAR und TAF Bericht).

Die verfügbaren Stationen werden durch gelbe und rote Markierungen auf der Karte dargestellt.

Führen Sie die Maus auf sie, um den Namen der Station zu sehen.

Darauf klicken, um die Beobachtung von Wetterbeobachtungen und Prognosen zu sehen.

Um die Karte zu ändern : klicken Sie auf den grünen Tasten mit einem schwarzen Kreuz Zum Vergrößern, auf den grünen Button mit einem Gedankenstrich zu verkleinern, oder auf die grünen Pfeile für benachbarte Karten.


METAR-TAF: